Time;durP1;ratioP1;P1;durP2;ratioP2;P2;SDS_P1;SDS_P2;PMS_P1;PMS_P2;Temp;Humidity;BMP_temperature;BMP_pressure;BME280_temperature;BME280_humidity;BME280_pressure;Samples;Min_cycle;Max_cycle;Signal;HPM_P1;HPM_P2
2022/07/14 00:02:30;;;;;;;4.30;1.92;;;;;;;;;;10012048;28;20086;-66
2022/07/14 00:07:24;;;;;;;2.83;1.92;;;;;;;;;;10008044;28;20057;-67
2022/07/14 00:12:18;;;;;;;2.05;1.80;;;;;;;;;;10020412;28;20104;-68
2022/07/14 00:17:12;;;;;;;8.02;2.40;;;;;;;;;;10030356;28;20092;-71
2022/07/14 00:22:06;;;;;;;3.88;1.63;;;;;;;;;;10030778;28;20056;-68
2022/07/14 00:26:59;;;;;;;8.18;2.20;;;;;;;;;;10026283;28;20132;-69
2022/07/14 00:31:52;;;;;;;5.43;1.98;;;;;;;;;;10020175;28;20121;-70
2022/07/14 00:36:46;;;;;;;1.88;1.75;;;;;;;;;;10042298;28;20071;-68
2022/07/14 00:41:40;;;;;;;2.05;1.85;;;;;;;;;;10045866;28;20096;-71
2022/07/14 00:46:38;;;;;;;2.17;1.92;;;;;;;;;;10026725;28;20057;-70
2022/07/14 00:51:32;;;;;;;5.40;2.37;;;;;;;;;;10045238;28;20053;-70
2022/07/14 00:56:26;;;;;;;2.20;2.08;;;;;;;;;;10029523;28;20037;-71
2022/07/14 01:01:20;;;;;;;5.63;2.08;;;;;;;;;;10027858;28;20057;-70
2022/07/14 01:06:14;;;;;;;2.47;1.67;;;;;;;;;;10008452;28;20069;-70
2022/07/14 01:11:10;;;;;;;6.60;2.13;;;;;;;;;;10011087;28;20058;-70
2022/07/14 01:16:05;;;;;;;3.45;2.33;;;;;;;;;;10024322;28;20051;-68
2022/07/14 01:20:59;;;;;;;4.35;2.42;;;;;;;;;;10031802;28;20053;-71
2022/07/14 01:25:53;;;;;;;2.67;2.47;;;;;;;;;;10028754;28;20057;-69
2022/07/14 01:30:47;;;;;;;9.23;2.35;;;;;;;;;;10036566;28;20046;-71
2022/07/14 01:35:41;;;;;;;2.80;2.50;;;;;;;;;;10039626;28;20058;-71
2022/07/14 01:40:34;;;;;;;4.72;2.15;;;;;;;;;;10032046;28;20042;-70
2022/07/14 01:45:29;;;;;;;3.10;2.03;;;;;;;;;;10044754;28;20145;-68
2022/07/14 01:50:23;;;;;;;3.00;1.70;;;;;;;;;;10034733;28;20041;-69
2022/07/14 01:55:18;;;;;;;2.58;2.17;;;;;;;;;;10022928;28;20042;-68
2022/07/14 02:00:12;;;;;;;2.85;2.65;;;;;;;;;;10028339;28;20073;-68
2022/07/14 02:05:17;;;;;;;5.63;2.30;;;;;;;;;;10040087;28;20132;-69
2022/07/14 02:15:23;;;;;;;3.28;2.67;;;;;;;;;;10026134;28;20054;-68
2022/07/14 02:20:18;;;;;;;10.50;1.92;;;;;;;;;;10033134;28;20049;-68
2022/07/14 02:25:13;;;;;;;3.38;2.20;;;;;;;;;;10033267;28;20061;-70
2022/07/14 02:30:09;;;;;;;2.50;2.30;;;;;;;;;;10045305;28;20049;-68
2022/07/14 02:35:04;;;;;;;3.58;2.55;;;;;;;;;;10032126;28;20555;-68
2022/07/14 02:39:59;;;;;;;3.13;1.98;;;;;;;;;;10029638;28;20050;-70
2022/07/14 02:44:54;;;;;;;4.25;2.40;;;;;;;;;;10019102;28;20054;-69
2022/07/14 02:49:48;;;;;;;2.65;2.45;;;;;;;;;;10032829;28;20460;-71
2022/07/14 02:54:42;;;;;;;5.22;2.28;;;;;;;;;;10043305;28;20096;-69
2022/07/14 02:59:38;;;;;;;6.75;2.30;;;;;;;;;;10051852;28;20057;-69
2022/07/14 03:04:32;;;;;;;3.47;2.47;;;;;;;;;;10029540;28;20066;-69
2022/07/14 03:09:29;;;;;;;4.45;2.60;;;;;;;;;;10033708;28;20041;-69
2022/07/14 03:14:26;;;;;;;6.70;2.47;;;;;;;;;;10019848;28;20057;-69
2022/07/14 03:19:19;;;;;;;4.00;2.53;;;;;;;;;;10031140;28;20049;-69
2022/07/14 03:24:13;;;;;;;2.75;2.35;;;;;;;;;;10014823;28;20121;-69
2022/07/14 03:29:09;;;;;;;6.38;2.40;;;;;;;;;;10019971;28;20100;-69
2022/07/14 03:34:03;;;;;;;2.78;2.38;;;;;;;;;;10041117;28;20104;-69
2022/07/14 03:38:59;;;;;;;6.55;2.53;;;;;;;;;;10028985;28;20049;-69
2022/07/14 03:43:53;;;;;;;4.28;2.80;;;;;;;;;;10046239;28;20081;-69
2022/07/14 03:48:49;;;;;;;5.40;2.80;;;;;;;;;;10018763;28;20066;-69
2022/07/14 03:53:42;;;;;;;8.88;2.72;;;;;;;;;;10027789;28;20054;-69
2022/07/14 03:58:37;;;;;;;4.53;2.55;;;;;;;;;;10039819;28;20054;-69
2022/07/14 04:03:31;;;;;;;2.55;2.35;;;;;;;;;;10036998;28;20053;-68
2022/07/14 04:08:25;;;;;;;3.28;2.38;;;;;;;;;;10045119;28;20049;-69
2022/07/14 04:13:32;;;;;;;2.92;2.65;;;;;;;;;;10030353;28;20568;-69
2022/07/14 04:18:26;;;;;;;2.97;2.45;;;;;;;;;;10041750;28;20121;-69
2022/07/14 04:23:20;;;;;;;3.85;2.83;;;;;;;;;;10028155;28;20089;-69
2022/07/14 04:28:16;;;;;;;8.98;3.65;;;;;;;;;;10047750;28;20050;-69
2022/07/14 04:33:10;;;;;;;4.35;3.25;;;;;;;;;;10035646;28;20145;-69
2022/07/14 04:38:04;;;;;;;8.65;3.70;;;;;;;;;;10017363;28;20414;-68
2022/07/14 04:43:05;;;;;;;10.00;5.93;;;;;;;;;;10034216;28;20053;-68
2022/07/14 04:48:00;;;;;;;7.75;5.05;;;;;;;;;;10032404;28;20059;-69
2022/07/14 04:52:55;;;;;;;8.63;4.80;;;;;;;;;;10048604;28;20053;-69
2022/07/14 04:58:08;;;;;;;6.22;4.38;;;;;;;;;;10045578;28;20448;-69
2022/07/14 05:03:03;;;;;;;7.97;5.18;;;;;;;;;;10041020;28;20058;-69
2022/07/14 05:07:57;;;;;;;7.55;4.00;;;;;;;;;;10052830;28;20084;-68
2022/07/14 05:12:58;;;;;;;9.02;4.55;;;;;;;;;;10032068;28;20080;-68
2022/07/14 05:17:52;;;;;;;18.95;4.40;;;;;;;;;;10027955;28;20089;-69
2022/07/14 05:22:46;;;;;;;6.60;4.68;;;;;;;;;;10024657;28;20048;-69
2022/07/14 05:27:41;;;;;;;9.25;4.45;;;;;;;;;;10048595;28;20079;-70
2022/07/14 05:32:45;;;;;;;7.00;3.97;;;;;;;;;;10023654;28;20043;-69
2022/07/14 05:37:39;;;;;;;6.70;4.35;;;;;;;;;;10004817;28;20054;-68
2022/07/14 05:42:33;;;;;;;9.00;4.82;;;;;;;;;;10027673;28;20541;-68
2022/07/14 05:47:27;;;;;;;10.77;6.03;;;;;;;;;;10007340;28;20449;-68
2022/07/14 05:52:21;;;;;;;7.90;4.40;;;;;;;;;;10021089;28;20077;-69
2022/07/14 05:57:15;;;;;;;9.27;5.53;;;;;;;;;;10004056;28;20077;-70
2022/07/14 06:02:12;;;;;;;8.90;4.05;;;;;;;;;;10041963;28;20041;-71
2022/07/14 06:07:07;;;;;;;12.00;4.07;;;;;;;;;;10019450;28;20176;-71
2022/07/14 06:12:06;;;;;;;11.30;5.95;;;;;;;;;;10025683;28;20613;-71
2022/07/14 06:17:03;;;;;;;10.20;7.30;;;;;;;;;;10013378;28;20424;-70
2022/07/14 06:21:57;;;;;;;11.32;10.23;;;;;;;;;;10031909;28;20057;-70
2022/07/14 06:26:51;;;;;;;9.50;8.45;;;;;;;;;;10017100;28;20389;-67
2022/07/14 06:31:49;;;;;;;13.13;9.02;;;;;;;;;;10031467;28;20379;-66
2022/07/14 06:36:43;;;;;;;12.82;6.45;;;;;;;;;;10026909;28;20081;-69
2022/07/14 06:41:39;;;;;;;26.95;6.13;;;;;;;;;;10018003;28;20116;-69
2022/07/14 06:46:37;;;;;;;11.80;4.00;;;;;;;;;;10030398;28;20049;-67
2022/07/14 06:51:32;;;;;;;7.45;4.10;;;;;;;;;;10027136;28;20077;-68
2022/07/14 06:56:26;;;;;;;10.32;3.63;;;;;;;;;;10012804;28;20066;-67
2022/07/14 07:01:21;;;;;;;8.32;3.92;;;;;;;;;;10022273;28;20057;-67
2022/07/14 07:11:46;;;;;;;7.25;3.22;;;;;;;;;;10001857;28;20485;-60
2022/07/14 07:17:00;;;;;;;10.70;3.67;;;;;;;;;;10030759;28;20520;-61
2022/07/14 07:22:14;;;;;;;6.85;3.28;;;;;;;;;;10019330;28;20046;-61
2022/07/14 07:27:28;;;;;;;6.30;4.10;;;;;;;;;;10022123;28;20081;-61
2022/07/14 07:32:41;;;;;;;8.32;3.13;;;;;;;;;;10025060;28;20100;-61
2022/07/14 07:37:55;;;;;;;8.43;4.05;;;;;;;;;;10023194;28;20045;-61
2022/07/14 07:43:09;;;;;;;3.83;2.38;;;;;;;;;;10024790;28;20065;-61
2022/07/14 07:48:04;;;;;;;6.45;2.50;;;;;;;;;;10021964;28;20053;-61
2022/07/14 07:52:58;;;;;;;4.32;2.33;;;;;;;;;;10023646;28;20046;-62
2022/07/14 07:58:12;;;;;;;3.63;2.85;;;;;;;;;;10017797;28;20046;-61
2022/07/14 08:03:26;;;;;;;8.15;2.97;;;;;;;;;;10018539;28;20136;-61
2022/07/14 08:08:40;;;;;;;2.70;2.45;;;;;;;;;;10020082;28;20077;-61
2022/07/14 08:13:53;;;;;;;7.18;2.70;;;;;;;;;;10016491;28;20148;-61
2022/07/14 08:18:49;;;;;;;7.80;3.28;;;;;;;;;;10017261;28;20050;-62
2022/07/14 08:23:43;;;;;;;9.57;2.75;;;;;;;;;;10019864;28;20124;-62
2022/07/14 08:28:55;;;;;;;14.68;2.47;;;;;;;;;;10017552;28;20045;-61
2022/07/14 08:33:50;;;;;;;9.00;2.63;;;;;;;;;;10015568;28;20064;-62
2022/07/14 08:38:44;;;;;;;9.05;2.58;;;;;;;;;;10018419;28;20062;-61
2022/07/14 08:43:38;;;;;;;6.38;2.33;;;;;;;;;;10017811;28;20054;-62
2022/07/14 08:48:32;;;;;;;8.55;2.20;;;;;;;;;;10016044;28;20137;-63
2022/07/14 08:53:29;;;;;;;7.93;1.90;;;;;;;;;;10023872;28;20504;-62
2022/07/14 08:58:23;;;;;;;8.23;1.67;;;;;;;;;;10008300;28;20077;-62
2022/07/14 09:03:17;;;;;;;12.68;2.35;;;;;;;;;;10014108;28;20061;-62
2022/07/14 09:08:31;;;;;;;3.22;1.50;;;;;;;;;;10026033;28;20504;-62
2022/07/14 09:13:26;;;;;;;9.57;1.45;;;;;;;;;;10026955;28;20440;-62
2022/07/14 09:18:21;;;;;;;3.25;1.50;;;;;;;;;;10024384;28;20053;-63
2022/07/14 09:23:14;;;;;;;3.22;1.40;;;;;;;;;;10021385;28;20048;-61
2022/07/14 09:28:08;;;;;;;6.22;1.88;;;;;;;;;;10027158;28;20080;-61
2022/07/14 09:33:05;;;;;;;9.50;1.70;;;;;;;;;;10024470;28;20052;-61
2022/07/14 09:38:01;;;;;;;6.95;1.65;;;;;;;;;;10026225;28;20130;-61
2022/07/14 09:42:58;;;;;;;4.45;1.23;;;;;;;;;;10025953;28;20112;-61
2022/07/14 09:48:09;;;;;;;6.55;1.63;;;;;;;;;;10030112;28;20077;-62
2022/07/14 09:53:15;;;;;;;6.03;1.70;;;;;;;;;;10028505;28;20489;-61
2022/07/14 09:58:08;;;;;;;6.43;1.73;;;;;;;;;;10026685;28;20046;-61
2022/07/14 10:03:05;;;;;;;5.25;1.58;;;;;;;;;;10030565;28;20483;-63
2022/07/14 10:07:58;;;;;;;;;;;;;;;;;;10026989;28;20112;-61
2022/07/14 10:12:52;;;;;;;6.32;1.80;;;;;;;;;;10032380;28;19925;-62
2022/07/14 10:17:46;;;;;;;5.22;1.20;;;;;;;;;;10036351;28;20076;-61
2022/07/14 10:22:40;;;;;;;3.53;1.48;;;;;;;;;;10032726;28;20061;-62
2022/07/14 10:27:34;;;;;;;11.98;1.98;;;;;;;;;;10014044;28;20046;-62
2022/07/14 10:32:53;;;;;;;3.25;1.58;;;;;;;;;;10033855;28;20142;-62
2022/07/14 10:38:11;;;;;;;2.33;1.42;;;;;;;;;;10016413;28;20490;-62
2022/07/14 10:43:07;;;;;;;2.13;1.33;;;;;;;;;;10031442;28;20400;-61
2022/07/14 10:48:05;;;;;;;3.80;1.65;;;;;;;;;;10029760;28;20072;-62
2022/07/14 10:53:04;;;;;;;6.93;1.63;;;;;;;;;;10028982;28;20455;-62
2022/07/14 10:58:00;;;;;;;4.22;1.52;;;;;;;;;;10025326;28;21400;-62
2022/07/14 11:02:53;;;;;;;;;;;;;;;;;;10030707;28;20560;-62
2022/07/14 11:08:08;;;;;;;2.60;1.98;;;;;;;;;;10029527;28;20016;-61
2022/07/14 11:13:04;;;;;;;1.90;1.60;;;;;;;;;;10022651;28;20042;-63
2022/07/14 11:18:18;;;;;;;2.65;1.65;;;;;;;;;;10024983;28;20069;-62
2022/07/14 11:23:45;;;;;;;1.92;1.65;;;;;;;;;;10025051;28;20100;-61
2022/07/14 11:28:49;;;;;;;3.47;1.88;;;;;;;;;;10022215;28;20057;-62
2022/07/14 11:39:15;;;;;;;6.10;2.00;;;;;;;;;;10017315;28;20120;-63
2022/07/14 11:44:40;;;;;;;5.85;2.33;;;;;;;;;;10024220;28;20373;-62
2022/07/14 11:49:35;;;;;;;5.75;2.00;;;;;;;;;;10021195;28;20417;-62
2022/07/14 11:54:29;;;;;;;5.68;2.00;;;;;;;;;;10024940;28;20125;-61
2022/07/14 11:59:23;;;;;;;3.17;2.00;;;;;;;;;;10006624;28;20042;-61
2022/07/14 12:04:17;;;;;;;5.82;1.80;;;;;;;;;;10027629;28;20129;-61
2022/07/14 12:09:11;;;;;;;8.40;2.10;;;;;;;;;;10006416;28;20428;-61
2022/07/14 12:14:25;;;;;;;5.53;2.30;;;;;;;;;;10013762;28;20131;-62
2022/07/14 12:19:30;;;;;;;4.43;2.00;;;;;;;;;;10014582;28;20050;-61
2022/07/14 12:24:25;;;;;;;7.78;1.65;;;;;;;;;;10009693;28;20407;-62
2022/07/14 12:29:19;;;;;;;3.97;1.90;;;;;;;;;;10017394;28;20053;-62
2022/07/14 12:34:15;;;;;;;4.47;1.63;;;;;;;;;;10017495;28;20129;-63
2022/07/14 12:39:09;;;;;;;4.78;1.70;;;;;;;;;;10018827;28;20042;-62
2022/07/14 12:44:08;;;;;;;2.95;1.63;;;;;;;;;;10015086;28;20053;-62
2022/07/14 12:49:09;;;;;;;4.60;1.40;;;;;;;;;;10025042;28;20138;-62
2022/07/14 12:54:17;;;;;;;5.93;1.60;;;;;;;;;;10018036;28;20053;-61
2022/07/14 12:59:55;;;;;;;2.53;1.77;;;;;;;;;;10010002;28;20068;-62
2022/07/14 13:05:01;;;;;;;3.38;1.80;;;;;;;;;;10015290;28;20049;-63
2022/07/14 13:10:22;;;;;;;2.38;1.73;;;;;;;;;;10018502;28;20053;-62
2022/07/14 13:15:18;;;;;;;4.78;1.70;;;;;;;;;;10030623;28;20505;-62
2022/07/14 13:20:46;;;;;;;2.53;1.50;;;;;;;;;;10030354;28;20131;-62
2022/07/14 13:25:46;;;;;;;9.50;1.90;;;;;;;;;;10006096;28;20390;-64
2022/07/14 13:30:43;;;;;;;2.17;1.98;;;;;;;;;;10019685;28;20498;-62
2022/07/14 13:35:38;;;;;;;3.75;1.80;;;;;;;;;;10017705;28;20046;-62
2022/07/14 13:40:33;;;;;;;11.18;1.70;;;;;;;;;;10009830;28;20073;-63
2022/07/14 13:45:27;;;;;;;5.82;1.88;;;;;;;;;;10004019;28;20046;-63
2022/07/14 13:55:33;;;;;;;3.72;1.73;;;;;;;;;;10013981;28;20567;-62
2022/07/14 14:00:27;;;;;;;5.68;1.73;;;;;;;;;;10020130;28;20046;-62
2022/07/14 14:05:22;;;;;;;3.00;1.45;;;;;;;;;;10020859;28;20069;-62
2022/07/14 14:10:16;;;;;;;8.90;3.03;;;;;;;;;;10018738;28;20132;-62
2022/07/14 14:15:10;;;;;;;4.13;1.75;;;;;;;;;;10007475;28;20050;-63
2022/07/14 14:20:05;;;;;;;8.30;1.90;;;;;;;;;;10018872;28;20467;-63
2022/07/14 14:25:00;;;;;;;4.23;1.73;;;;;;;;;;10015002;28;20107;-63
2022/07/14 14:29:54;;;;;;;4.70;2.13;;;;;;;;;;10012561;28;20312;-63
2022/07/14 14:34:48;;;;;;;6.35;1.83;;;;;;;;;;10006782;28;20128;-63
2022/07/14 14:39:42;;;;;;;4.10;1.55;;;;;;;;;;10016864;28;20416;-63
2022/07/14 14:44:37;;;;;;;8.88;3.45;;;;;;;;;;10014235;28;20077;-63
2022/07/14 14:49:34;;;;;;;2.80;1.77;;;;;;;;;;10023694;28;20052;-64
2022/07/14 14:54:27;;;;;;;3.05;2.08;;;;;;;;;;10026470;28;20408;-63
2022/07/14 14:59:22;;;;;;;4.43;1.70;;;;;;;;;;10016975;28;20057;-63
2022/07/14 15:04:15;;;;;;;6.82;1.60;;;;;;;;;;10014857;28;20080;-63
2022/07/14 15:09:10;;;;;;;6.88;1.83;;;;;;;;;;10013513;28;20053;-63
2022/07/14 15:14:04;;;;;;;4.53;1.90;;;;;;;;;;10011354;28;20046;-63
2022/07/14 15:18:58;;;;;;;3.45;1.70;;;;;;;;;;10032544;28;20049;-63
2022/07/14 15:23:53;;;;;;;6.70;1.88;;;;;;;;;;10006986;28;20058;-65
2022/07/14 15:28:47;;;;;;;6.80;1.88;;;;;;;;;;10019957;28;20081;-63
2022/07/14 15:33:40;;;;;;;5.32;2.05;;;;;;;;;;10020705;28;20042;-63
2022/07/14 15:41:14;;;;;;;1.73;1.63;;;;;;;;;;10003187;28;20058;-63
2022/07/14 15:43:53;;;;;;;2.58;1.90;;;;;;;;;;10006920;28;20072;-63
2022/07/14 15:48:48;;;;;;;7.40;1.90;;;;;;;;;;10017650;28;20487;-64
2022/07/14 15:53:42;;;;;;;7.10;1.85;;;;;;;;;;10020234;28;20693;-64
2022/07/14 15:58:38;;;;;;;4.43;2.05;;;;;;;;;;10026098;28;20488;-64
2022/07/14 16:03:31;;;;;;;2.13;1.90;;;;;;;;;;10023236;28;20053;-64
2022/07/14 16:08:28;;;;;;;4.05;2.35;;;;;;;;;;10023857;28;20060;-65
2022/07/14 16:13:23;;;;;;;4.78;1.90;;;;;;;;;;10018538;28;20050;-64
2022/07/14 16:18:17;;;;;;;8.98;2.53;;;;;;;;;;10023392;28;20420;-63
2022/07/14 16:23:12;;;;;;;3.35;2.20;;;;;;;;;;10024354;28;20064;-64
2022/07/14 16:28:06;;;;;;;1.95;1.75;;;;;;;;;;10024802;28;20057;-64
2022/07/14 16:33:00;;;;;;;3.45;1.90;;;;;;;;;;10002542;28;20116;-64
2022/07/14 16:37:54;;;;;;;3.67;1.70;;;;;;;;;;10012441;28;20062;-68
2022/07/14 16:42:48;;;;;;;4.57;1.70;;;;;;;;;;10024221;28;20049;-67
2022/07/14 16:47:44;;;;;;;1.98;1.70;;;;;;;;;;10027367;28;20508;-68
2022/07/14 16:52:38;;;;;;;3.08;2.15;;;;;;;;;;10030308;28;20100;-66
2022/07/14 16:57:32;;;;;;;1.98;1.75;;;;;;;;;;10001994;28;20113;-66
2022/07/14 17:02:26;;;;;;;3.42;1.52;;;;;;;;;;10015165;28;20062;-68
2022/07/14 17:07:20;;;;;;;6.90;1.77;;;;;;;;;;10023837;28;20440;-62
2022/07/14 17:12:14;;;;;;;5.65;1.80;;;;;;;;;;10026126;28;20046;-63
2022/07/14 17:17:10;;;;;;;9.73;1.83;;;;;;;;;;10041418;28;20054;-63
2022/07/14 17:22:23;;;;;;;3.90;1.70;;;;;;;;;;10041213;28;20045;-62
2022/07/14 17:27:17;;;;;;;3.42;1.95;;;;;;;;;;10036523;28;20104;-62
2022/07/14 17:32:11;;;;;;;4.20;2.25;;;;;;;;;;10036640;28;20053;-63
2022/07/14 17:37:05;;;;;;;7.43;2.40;;;;;;;;;;10038892;28;20077;-63
2022/07/14 17:41:58;;;;;;;2.75;1.60;;;;;;;;;;10032533;28;20119;-62
2022/07/14 17:46:52;;;;;;;2.42;2.10;;;;;;;;;;10038235;28;20100;-63
2022/07/14 17:56:58;;;;;;;4.18;2.03;;;;;;;;;;10032715;28;20042;-63
2022/07/14 18:01:53;;;;;;;4.57;2.13;;;;;;;;;;10028773;28;20076;-62
2022/07/14 18:06:48;;;;;;;4.53;1.90;;;;;;;;;;10016028;28;20136;-62
2022/07/14 18:11:44;;;;;;;6.57;1.90;;;;;;;;;;10019753;28;20115;-62
2022/07/14 18:16:39;;;;;;;2.33;1.92;;;;;;;;;;10026260;28;20386;-63
2022/07/14 18:21:36;;;;;;;3.25;1.65;;;;;;;;;;10027994;28;20053;-70
2022/07/14 18:26:33;;;;;;;8.48;2.10;;;;;;;;;;10031205;28;20096;-70
2022/07/14 18:31:29;;;;;;;7.63;2.45;;;;;;;;;;10018510;28;20056;-80
2022/07/14 18:36:23;;;;;;;9.40;3.08;;;;;;;;;;10030118;28;20482;-70
2022/07/14 18:41:18;;;;;;;9.68;3.35;;;;;;;;;;10026029;28;20401;-72
2022/07/14 18:46:15;;;;;;;6.10;2.67;;;;;;;;;;10028254;28;20125;-70
2022/07/14 18:51:16;;;;;;;6.60;3.35;;;;;;;;;;10017112;28;20054;-72
2022/07/14 18:56:11;;;;;;;5.20;3.15;;;;;;;;;;10030375;28;20100;-72
2022/07/14 19:01:07;;;;;;;16.33;4.75;;;;;;;;;;10037491;28;20132;-72
2022/07/14 19:06:03;;;;;;;10.40;2.83;;;;;;;;;;10034816;28;20047;-72
2022/07/14 19:10:58;;;;;;;12.02;2.17;;;;;;;;;;10049390;28;20464;-72
2022/07/14 19:15:53;;;;;;;7.55;2.47;;;;;;;;;;10040780;28;20049;-72
2022/07/14 19:20:48;;;;;;;8.33;2.13;;;;;;;;;;10029836;28;20053;-70
2022/07/14 19:25:43;;;;;;;7.43;2.00;;;;;;;;;;10022949;28;20054;-70
2022/07/14 19:30:38;;;;;;;5.57;1.80;;;;;;;;;;9998415;28;20100;-69
2022/07/14 19:35:34;;;;;;;11.60;1.95;;;;;;;;;;10016195;28;20104;-71
2022/07/14 19:40:28;;;;;;;9.05;2.95;;;;;;;;;;10020174;28;20041;-72
2022/07/14 19:45:22;;;;;;;1.67;1.30;;;;;;;;;;10014697;28;20464;-69
2022/07/14 19:50:15;;;;;;;4.68;1.65;;;;;;;;;;10035258;28;20051;-69
2022/07/14 19:55:09;;;;;;;5.00;1.80;;;;;;;;;;10044477;28;20053;-69
2022/07/14 20:00:10;;;;;;;3.22;1.95;;;;;;;;;;10049621;28;20049;-69
2022/07/14 20:05:24;;;;;;;6.47;1.73;;;;;;;;;;10050544;28;20045;-71
2022/07/14 20:10:18;;;;;;;7.07;1.60;;;;;;;;;;10031777;28;20069;-69
2022/07/14 20:15:12;;;;;;;4.25;1.92;;;;;;;;;;10019537;28;20053;-71
2022/07/14 20:20:08;;;;;;;2.33;2.05;;;;;;;;;;10013271;28;20057;-71
2022/07/14 20:25:02;;;;;;;9.18;2.53;;;;;;;;;;10009588;28;20050;-71
2022/07/14 20:35:09;;;;;;;6.18;2.20;;;;;;;;;;10023908;28;20045;-71
2022/07/14 20:40:09;;;;;;;3.58;2.10;;;;;;;;;;10020495;28;20050;-71
2022/07/14 20:45:04;;;;;;;10.15;2.50;;;;;;;;;;10024487;28;20049;-68
2022/07/14 20:50:01;;;;;;;12.68;3.70;;;;;;;;;;10022512;28;20129;-68
2022/07/14 20:54:55;;;;;;;11.50;3.70;;;;;;;;;;10019720;28;20061;-69
2022/07/14 20:59:49;;;;;;;8.65;3.15;;;;;;;;;;10020806;28;20054;-69
2022/07/14 21:04:43;;;;;;;13.05;4.50;;;;;;;;;;10022155;28;20045;-69
2022/07/14 21:09:37;;;;;;;14.88;4.03;;;;;;;;;;10023405;28;20054;-69
2022/07/14 21:14:31;;;;;;;10.20;3.80;;;;;;;;;;10021429;28;20057;-69
2022/07/14 21:19:24;;;;;;;11.57;3.70;;;;;;;;;;10034486;28;20406;-69
2022/07/14 21:24:19;;;;;;;4.35;3.88;;;;;;;;;;10055863;28;20119;-69
2022/07/14 21:29:13;;;;;;;6.00;4.00;;;;;;;;;;10006310;28;20034;-69
2022/07/14 21:34:10;;;;;;;9.82;3.90;;;;;;;;;;10036534;28;20116;-70
2022/07/14 21:39:04;;;;;;;12.90;3.83;;;;;;;;;;10034105;28;20041;-71
2022/07/14 21:43:57;;;;;;;7.18;3.65;;;;;;;;;;10032723;28;20041;-70
2022/07/14 21:48:52;;;;;;;12.20;4.80;;;;;;;;;;10031378;28;20045;-69
2022/07/14 21:53:47;;;;;;;5.40;3.55;;;;;;;;;;10027387;28;20053;-70
2022/07/14 21:58:40;;;;;;;6.30;4.00;;;;;;;;;;10010044;28;20053;-68
2022/07/14 22:03:34;;;;;;;9.30;4.13;;;;;;;;;;10018405;28;20141;-70
2022/07/14 22:08:28;;;;;;;9.98;3.63;;;;;;;;;;10034439;28;20124;-69
2022/07/14 22:13:22;;;;;;;6.97;3.75;;;;;;;;;;10047430;28;20050;-70
2022/07/14 22:18:17;;;;;;;11.40;4.15;;;;;;;;;;10042763;28;20553;-70
2022/07/14 22:23:27;;;;;;;4.90;3.42;;;;;;;;;;10043718;28;20045;-72
2022/07/14 22:28:20;;;;;;;5.68;4.00;;;;;;;;;;10048147;28;20110;-69
2022/07/14 22:33:14;;;;;;;5.43;3.42;;;;;;;;;;10036392;28;20050;-71
2022/07/14 22:38:09;;;;;;;4.57;3.28;;;;;;;;;;10049656;28;20046;-69
2022/07/14 22:43:04;;;;;;;3.17;2.90;;;;;;;;;;10031037;28;20046;-69
2022/07/14 22:47:58;;;;;;;5.65;3.20;;;;;;;;;;10034742;28;20060;-69
2022/07/14 22:52:52;;;;;;;5.82;3.47;;;;;;;;;;10032604;28;20545;-69
2022/07/14 22:57:47;;;;;;;3.90;3.30;;;;;;;;;;10037931;28;20053;-71
2022/07/14 23:02:43;;;;;;;5.68;3.58;;;;;;;;;;10028520;28;20129;-70
2022/07/14 23:07:37;;;;;;;4.85;3.10;;;;;;;;;;10032133;28;20058;-70
2022/07/14 23:12:31;;;;;;;6.75;4.35;;;;;;;;;;10046623;28;20501;-70
2022/07/14 23:17:24;;;;;;;5.47;3.67;;;;;;;;;;10030142;28;20112;-70
2022/07/14 23:22:19;;;;;;;7.70;3.35;;;;;;;;;;10044098;28;20443;-69
2022/07/14 23:27:13;;;;;;;3.60;3.30;;;;;;;;;;10027520;28;20045;-70
2022/07/14 23:32:07;;;;;;;4.82;3.67;;;;;;;;;;10022321;28;20054;-70
2022/07/14 23:37:01;;;;;;;5.00;3.88;;;;;;;;;;10033665;28;20058;-70
2022/07/14 23:41:56;;;;;;;4.70;3.65;;;;;;;;;;10034766;28;20531;-70
2022/07/14 23:46:50;;;;;;;10.85;5.03;;;;;;;;;;10035015;28;20129;-70
2022/07/14 23:51:45;;;;;;;3.95;3.28;;;;;;;;;;10019769;28;20386;-70
2022/07/14 23:56:39;;;;;;;3.85;3.55;;;;;;;;;;10005578;28;20449;-70
